Terminal Aerodrome Forecast
Issued by NWS Tallahassee, FL

Home | Current Version | Previous Version | Text Only | Print | Product List | Glossary On
Versions: 1 2 3 4 5 6 7 8 9 10 11 12 13 14 15
194
FTUS42 KTAE 301720
TAFTLH
TAF
KTLH 301720Z 3018/3118 07010G15KT P6SM TS SCT050CB BKN250
     FM310000 07008KT P6SM SCT250
      TEMPO 3111/3115 P6SM BKN015=

USA.gov is the U.S. government's official web portal to all federal, state and local government web resources and services.